sensor_id;sensor_type;location;lat;lon;timestamp;temperature;humidity
70366;DHT22;57787;48.216;12.396;2023-03-21T00:00:38;7.70;80.40
70366;DHT22;57787;48.216;12.396;2023-03-21T00:03:05;7.70;80.50
70366;DHT22;57787;48.216;12.396;2023-03-21T00:05:32;7.70;80.40
70366;DHT22;57787;48.216;12.396;2023-03-21T00:07:59;7.70;80.90
70366;DHT22;57787;48.216;12.396;2023-03-21T00:10:45;7.70;80.70
70366;DHT22;57787;48.216;12.396;2023-03-21T00:13:14;7.70;80.60
70366;DHT22;57787;48.216;12.396;2023-03-21T00:15:41;7.70;80.90
70366;DHT22;57787;48.216;12.396;2023-03-21T00:18:37;7.70;81.10
70366;DHT22;57787;48.216;12.396;2023-03-21T00:21:09;7.70;81.00
70366;DHT22;57787;48.216;12.396;2023-03-21T00:23:56;7.80;81.50
70366;DHT22;57787;48.216;12.396;2023-03-21T00:26:23;7.80;81.20
70366;DHT22;57787;48.216;12.396;2023-03-21T00:28:51;7.80;81.10
70366;DHT22;57787;48.216;12.396;2023-03-21T00:31:17;7.80;81.20
70366;DHT22;57787;48.216;12.396;2023-03-21T00:33:44;7.80;80.90
70366;DHT22;57787;48.216;12.396;2023-03-21T00:36:11;7.80;81.30
70366;DHT22;57787;48.216;12.396;2023-03-21T00:38:38;7.80;81.30
70366;DHT22;57787;48.216;12.396;2023-03-21T00:41:06;7.80;80.80
70366;DHT22;57787;48.216;12.396;2023-03-21T00:43:46;7.80;80.60
70366;DHT22;57787;48.216;12.396;2023-03-21T00:46:13;7.80;81.10
70366;DHT22;57787;48.216;12.396;2023-03-21T00:48:40;7.70;80.90
70366;DHT22;57787;48.216;12.396;2023-03-21T00:51:13;7.70;80.70
70366;DHT22;57787;48.216;12.396;2023-03-21T00:53:41;7.60;80.80
70366;DHT22;57787;48.216;12.396;2023-03-21T00:56:08;7.60;80.80
70366;DHT22;57787;48.216;12.396;2023-03-21T00:58:35;7.60;80.80
70366;DHT22;57787;48.216;12.396;2023-03-21T01:01:02;7.50;81.10
70366;DHT22;57787;48.216;12.396;2023-03-21T01:03:29;7.60;81.40
70366;DHT22;57787;48.216;12.396;2023-03-21T01:05:56;7.50;81.20
70366;DHT22;57787;48.216;12.396;2023-03-21T01:08:31;7.50;81.10
70366;DHT22;57787;48.216;12.396;2023-03-21T01:11:17;7.50;80.90
70366;DHT22;57787;48.216;12.396;2023-03-21T01:13:44;7.50;81.20
70366;DHT22;57787;48.216;12.396;2023-03-21T01:16:21;7.50;81.00
70366;DHT22;57787;48.216;12.396;2023-03-21T01:18:48;7.50;81.10
70366;DHT22;57787;48.216;12.396;2023-03-21T01:21:15;7.50;80.90
70366;DHT22;57787;48.216;12.396;2023-03-21T01:23:42;7.50;81.60
70366;DHT22;57787;48.216;12.396;2023-03-21T01:26:09;7.50;81.30
70366;DHT22;57787;48.216;12.396;2023-03-21T01:28:36;7.50;81.80
70366;DHT22;57787;48.216;12.396;2023-03-21T01:31:04;7.50;81.40
70366;DHT22;57787;48.216;12.396;2023-03-21T01:33:31;7.50;81.60
70366;DHT22;57787;48.216;12.396;2023-03-21T01:35:58;7.50;81.90
70366;DHT22;57787;48.216;12.396;2023-03-21T01:38:38;7.50;81.80
70366;DHT22;57787;48.216;12.396;2023-03-21T01:41:05;7.50;81.60
70366;DHT22;57787;48.216;12.396;2023-03-21T01:43:46;7.50;81.40
70366;DHT22;57787;48.216;12.396;2023-03-21T01:48:47;7.60;82.20
70366;DHT22;57787;48.216;12.396;2023-03-21T01:51:15;7.50;81.90
70366;DHT22;57787;48.216;12.396;2023-03-21T01:53:45;7.60;81.90
70366;DHT22;57787;48.216;12.396;2023-03-21T01:56:22;7.50;81.80
70366;DHT22;57787;48.216;12.396;2023-03-21T01:58:50;7.60;81.90
70366;DHT22;57787;48.216;12.396;2023-03-21T02:01:18;7.60;81.80
70366;DHT22;57787;48.216;12.396;2023-03-21T02:03:48;7.60;81.70
70366;DHT22;57787;48.216;12.396;2023-03-21T02:06:22;7.60;81.70
70366;DHT22;57787;48.216;12.396;2023-03-21T02:08:51;7.60;81.70
70366;DHT22;57787;48.216;12.396;2023-03-21T02:11:19;7.60;81.70
70366;DHT22;57787;48.216;12.396;2023-03-21T02:13:47;7.60;82.00
70366;DHT22;57787;48.216;12.396;2023-03-21T02:16:23;7.60;82.00
70366;DHT22;57787;48.216;12.396;2023-03-21T02:18:55;7.60;81.90
70366;DHT22;57787;48.216;12.396;2023-03-21T02:29:29;7.70;82.10
70366;DHT22;57787;48.216;12.396;2023-03-21T02:37:40;7.60;81.60
70366;DHT22;57787;48.216;12.396;2023-03-21T02:40:13;7.70;81.70
70366;DHT22;57787;48.216;12.396;2023-03-21T02:43:07;7.70;81.80
70366;DHT22;57787;48.216;12.396;2023-03-21T02:46:03;7.70;81.70
70366;DHT22;57787;48.216;12.396;2023-03-21T02:48:33;7.60;81.80
70366;DHT22;57787;48.216;12.396;2023-03-21T02:51:16;7.60;81.90
70366;DHT22;57787;48.216;12.396;2023-03-21T02:53:47;7.60;82.50
70366;DHT22;57787;48.216;12.396;2023-03-21T02:56:25;7.60;82.60
70366;DHT22;57787;48.216;12.396;2023-03-21T02:58:53;7.60;82.40
70366;DHT22;57787;48.216;12.396;2023-03-21T03:01:19;7.60;82.40
70366;DHT22;57787;48.216;12.396;2023-03-21T03:03:46;7.60;82.60
70366;DHT22;57787;48.216;12.396;2023-03-21T03:06:17;7.60;82.60
70366;DHT22;57787;48.216;12.396;2023-03-21T03:08:48;7.60;82.70
70366;DHT22;57787;48.216;12.396;2023-03-21T03:11:30;7.60;83.40
70366;DHT22;57787;48.216;12.396;2023-03-21T03:19:44;7.60;83.40
70366;DHT22;57787;48.216;12.396;2023-03-21T03:22:22;7.60;83.50
70366;DHT22;57787;48.216;12.396;2023-03-21T03:24:54;7.60;83.80
70366;DHT22;57787;48.216;12.396;2023-03-21T03:27:23;7.60;83.60
70366;DHT22;57787;48.216;12.396;2023-03-21T03:29:51;7.60;83.40
70366;DHT22;57787;48.216;12.396;2023-03-21T03:32:23;7.50;83.10
70366;DHT22;57787;48.216;12.396;2023-03-21T03:34:52;7.60;83.10
70366;DHT22;57787;48.216;12.396;2023-03-21T03:37:23;7.60;83.00
70366;DHT22;57787;48.216;12.396;2023-03-21T03:39:59;7.50;83.10
70366;DHT22;57787;48.216;12.396;2023-03-21T03:42:28;7.50;82.90
70366;DHT22;57787;48.216;12.396;2023-03-21T03:44:56;7.50;83.30
70366;DHT22;57787;48.216;12.396;2023-03-21T03:47:28;7.50;83.20
70366;DHT22;57787;48.216;12.396;2023-03-21T03:52:44;7.50;82.80
70366;DHT22;57787;48.216;12.396;2023-03-21T03:55:22;7.50;82.70
70366;DHT22;57787;48.216;12.396;2023-03-21T03:57:49;7.50;83.00
70366;DHT22;57787;48.216;12.396;2023-03-21T04:00:16;7.50;83.00
70366;DHT22;57787;48.216;12.396;2023-03-21T04:02:43;7.50;83.40
70366;DHT22;57787;48.216;12.396;2023-03-21T04:05:10;7.50;82.90
70366;DHT22;57787;48.216;12.396;2023-03-21T04:07:38;7.50;82.90
70366;DHT22;57787;48.216;12.396;2023-03-21T04:10:05;7.50;82.70
70366;DHT22;57787;48.216;12.396;2023-03-21T04:12:32;7.50;83.00
70366;DHT22;57787;48.216;12.396;2023-03-21T04:15:01;7.50;82.50
70366;DHT22;57787;48.216;12.396;2023-03-21T04:17:36;7.50;82.50
70366;DHT22;57787;48.216;12.396;2023-03-21T04:20:06;7.50;82.50
70366;DHT22;57787;48.216;12.396;2023-03-21T04:22:46;7.50;82.60
70366;DHT22;57787;48.216;12.396;2023-03-21T04:25:14;7.50;82.00
70366;DHT22;57787;48.216;12.396;2023-03-21T04:27:56;7.50;82.20
70366;DHT22;57787;48.216;12.396;2023-03-21T04:30:23;7.50;82.00
70366;DHT22;57787;48.216;12.396;2023-03-21T04:32:50;7.50;81.60
70366;DHT22;57787;48.216;12.396;2023-03-21T04:35:19;7.40;81.70
70366;DHT22;57787;48.216;12.396;2023-03-21T04:37:48;7.40;81.60
70366;DHT22;57787;48.216;12.396;2023-03-21T04:40:15;7.40;82.10
70366;DHT22;57787;48.216;12.396;2023-03-21T04:42:45;7.30;82.10
70366;DHT22;57787;48.216;12.396;2023-03-21T04:45:13;7.40;82.60
70366;DHT22;57787;48.216;12.396;2023-03-21T04:47:41;7.30;82.80
70366;DHT22;57787;48.216;12.396;2023-03-21T04:50:09;7.30;82.70
70366;DHT22;57787;48.216;12.396;2023-03-21T04:52:36;7.30;83.10
70366;DHT22;57787;48.216;12.396;2023-03-21T04:55:03;7.30;83.20
70366;DHT22;57787;48.216;12.396;2023-03-21T04:57:29;7.20;83.00
70366;DHT22;57787;48.216;12.396;2023-03-21T04:59:56;7.20;82.80
70366;DHT22;57787;48.216;12.396;2023-03-21T05:02:23;7.20;83.50
70366;DHT22;57787;48.216;12.396;2023-03-21T05:04:51;7.20;83.60
70366;DHT22;57787;48.216;12.396;2023-03-21T05:07:17;7.20;83.70
70366;DHT22;57787;48.216;12.396;2023-03-21T05:09:45;7.20;83.70
70366;DHT22;57787;48.216;12.396;2023-03-21T05:12:12;7.20;83.50
70366;DHT22;57787;48.216;12.396;2023-03-21T05:14:41;7.20;83.40
70366;DHT22;57787;48.216;12.396;2023-03-21T05:17:07;7.20;83.40
70366;DHT22;57787;48.216;12.396;2023-03-21T05:19:37;7.20;83.00
70366;DHT22;57787;48.216;12.396;2023-03-21T05:22:07;7.20;83.00
70366;DHT22;57787;48.216;12.396;2023-03-21T05:24:34;7.20;83.00
70366;DHT22;57787;48.216;12.396;2023-03-21T05:27:02;7.20;83.00
70366;DHT22;57787;48.216;12.396;2023-03-21T05:29:30;7.20;83.20
70366;DHT22;57787;48.216;12.396;2023-03-21T05:31:57;7.20;83.30
70366;DHT22;57787;48.216;12.396;2023-03-21T05:34:24;7.20;83.40
70366;DHT22;57787;48.216;12.396;2023-03-21T05:36:53;7.30;83.70
70366;DHT22;57787;48.216;12.396;2023-03-21T05:39:20;7.30;83.40
70366;DHT22;57787;48.216;12.396;2023-03-21T05:41:48;7.30;83.60
70366;DHT22;57787;48.216;12.396;2023-03-21T05:44:15;7.30;83.90
70366;DHT22;57787;48.216;12.396;2023-03-21T05:46:42;7.30;84.10
70366;DHT22;57787;48.216;12.396;2023-03-21T05:49:10;7.40;84.40
70366;DHT22;57787;48.216;12.396;2023-03-21T05:51:37;7.30;84.30
70366;DHT22;57787;48.216;12.396;2023-03-21T05:54:04;7.40;84.20
70366;DHT22;57787;48.216;12.396;2023-03-21T05:56:34;7.40;84.20
70366;DHT22;57787;48.216;12.396;2023-03-21T05:59:01;7.50;84.10
70366;DHT22;57787;48.216;12.396;2023-03-21T06:01:28;7.50;84.10
70366;DHT22;57787;48.216;12.396;2023-03-21T06:03:56;7.50;84.10
70366;DHT22;57787;48.216;12.396;2023-03-21T06:06:23;7.60;84.10
70366;DHT22;57787;48.216;12.396;2023-03-21T06:08:50;7.60;84.20
70366;DHT22;57787;48.216;12.396;2023-03-21T06:11:19;7.70;83.90
70366;DHT22;57787;48.216;12.396;2023-03-21T06:13:48;7.80;84.00
70366;DHT22;57787;48.216;12.396;2023-03-21T06:16:15;7.80;83.80
70366;DHT22;57787;48.216;12.396;2023-03-21T06:18:41;7.90;83.40
70366;DHT22;57787;48.216;12.396;2023-03-21T06:21:08;8.00;83.80
70366;DHT22;57787;48.216;12.396;2023-03-21T06:23:35;8.00;83.00
70366;DHT22;57787;48.216;12.396;2023-03-21T06:26:02;8.10;82.90
70366;DHT22;57787;48.216;12.396;2023-03-21T06:28:30;8.20;82.90
70366;DHT22;57787;48.216;12.396;2023-03-21T06:30:57;8.20;83.40
70366;DHT22;57787;48.216;12.396;2023-03-21T06:33:24;8.30;83.00
70366;DHT22;57787;48.216;12.396;2023-03-21T06:35:51;8.40;82.70
70366;DHT22;57787;48.216;12.396;2023-03-21T06:38:19;8.40;82.30
70366;DHT22;57787;48.216;12.396;2023-03-21T06:40:46;8.50;82.20
70366;DHT22;57787;48.216;12.396;2023-03-21T06:43:13;8.60;82.40
70366;DHT22;57787;48.216;12.396;2023-03-21T06:45:41;8.60;82.30
70366;DHT22;57787;48.216;12.396;2023-03-21T06:48:08;8.70;82.10
70366;DHT22;57787;48.216;12.396;2023-03-21T06:50:35;8.80;81.80
70366;DHT22;57787;48.216;12.396;2023-03-21T06:53:02;8.90;81.90
70366;DHT22;57787;48.216;12.396;2023-03-21T06:55:31;9.00;81.80
70366;DHT22;57787;48.216;12.396;2023-03-21T06:57:57;9.10;81.80
70366;DHT22;57787;48.216;12.396;2023-03-21T07:00:24;9.10;81.70
70366;DHT22;57787;48.216;12.396;2023-03-21T07:02:51;9.30;81.70
70366;DHT22;57787;48.216;12.396;2023-03-21T07:05:19;9.30;81.50
70366;DHT22;57787;48.216;12.396;2023-03-21T07:07:47;9.40;81.20
70366;DHT22;57787;48.216;12.396;2023-03-21T07:10:15;9.50;81.10
70366;DHT22;57787;48.216;12.396;2023-03-21T07:12:42;9.60;80.60
70366;DHT22;57787;48.216;12.396;2023-03-21T07:15:09;9.80;80.30
70366;DHT22;57787;48.216;12.396;2023-03-21T07:17:36;9.80;80.00
70366;DHT22;57787;48.216;12.396;2023-03-21T07:20:03;10.00;79.50
70366;DHT22;57787;48.216;12.396;2023-03-21T07:22:34;10.10;79.10
70366;DHT22;57787;48.216;12.396;2023-03-21T07:25:01;10.20;79.10
70366;DHT22;57787;48.216;12.396;2023-03-21T07:27:31;10.30;78.90
70366;DHT22;57787;48.216;12.396;2023-03-21T07:29:57;10.30;78.60
70366;DHT22;57787;48.216;12.396;2023-03-21T07:32:26;10.40;77.60
70366;DHT22;57787;48.216;12.396;2023-03-21T07:34:55;10.40;77.10
70366;DHT22;57787;48.216;12.396;2023-03-21T07:37:24;10.40;76.70
70366;DHT22;57787;48.216;12.396;2023-03-21T07:39:51;10.40;76.80
70366;DHT22;57787;48.216;12.396;2023-03-21T07:42:18;10.50;76.90
70366;DHT22;57787;48.216;12.396;2023-03-21T07:44:44;10.60;76.90
70366;DHT22;57787;48.216;12.396;2023-03-21T07:47:11;10.70;75.90
70366;DHT22;57787;48.216;12.396;2023-03-21T07:49:38;10.90;76.10
70366;DHT22;57787;48.216;12.396;2023-03-21T07:52:05;11.20;75.80
70366;DHT22;57787;48.216;12.396;2023-03-21T07:54:33;11.50;73.90
70366;DHT22;57787;48.216;12.396;2023-03-21T07:57:00;11.90;75.40
70366;DHT22;57787;48.216;12.396;2023-03-21T07:59:27;12.30;72.50
70366;DHT22;57787;48.216;12.396;2023-03-21T08:01:54;12.50;69.70
70366;DHT22;57787;48.216;12.396;2023-03-21T08:04:20;12.70;68.40
70366;DHT22;57787;48.216;12.396;2023-03-21T08:06:49;12.80;67.70
70366;DHT22;57787;48.216;12.396;2023-03-21T08:09:15;12.80;67.10
70366;DHT22;57787;48.216;12.396;2023-03-21T08:11:42;12.90;66.70
70366;DHT22;57787;48.216;12.396;2023-03-21T08:14:09;12.90;66.20
70366;DHT22;57787;48.216;12.396;2023-03-21T08:16:39;12.90;67.90
70366;DHT22;57787;48.216;12.396;2023-03-21T08:19:06;13.00;67.80
70366;DHT22;57787;48.216;12.396;2023-03-21T08:21:33;13.00;65.10
70366;DHT22;57787;48.216;12.396;2023-03-21T08:23:59;12.90;63.50
70366;DHT22;57787;48.216;12.396;2023-03-21T08:26:27;12.80;64.20
70366;DHT22;57787;48.216;12.396;2023-03-21T08:28:54;12.70;64.80
70366;DHT22;57787;48.216;12.396;2023-03-21T08:31:21;12.60;64.50
70366;DHT22;57787;48.216;12.396;2023-03-21T08:33:50;12.60;64.50
70366;DHT22;57787;48.216;12.396;2023-03-21T08:36:21;12.50;65.60
70366;DHT22;57787;48.216;12.396;2023-03-21T08:38:49;12.60;65.90
70366;DHT22;57787;48.216;12.396;2023-03-21T08:41:19;12.80;65.90
70366;DHT22;57787;48.216;12.396;2023-03-21T08:43:47;12.90;65.40
70366;DHT22;57787;48.216;12.396;2023-03-21T08:46:14;13.10;63.30
70366;DHT22;57787;48.216;12.396;2023-03-21T08:48:41;13.30;63.50
70366;DHT22;57787;48.216;12.396;2023-03-21T08:51:08;13.30;61.80
70366;DHT22;57787;48.216;12.396;2023-03-21T08:53:35;13.40;61.60
70366;DHT22;57787;48.216;12.396;2023-03-21T08:56:02;13.50;61.80
70366;DHT22;57787;48.216;12.396;2023-03-21T08:58:29;13.80;63.50
70366;DHT22;57787;48.216;12.396;2023-03-21T09:00:56;14.00;62.70
70366;DHT22;57787;48.216;12.396;2023-03-21T09:03:24;14.10;61.50
70366;DHT22;57787;48.216;12.396;2023-03-21T09:05:53;14.30;61.90
70366;DHT22;57787;48.216;12.396;2023-03-21T09:08:19;14.50;59.80
70366;DHT22;57787;48.216;12.396;2023-03-21T09:10:55;14.60;59.30
70366;DHT22;57787;48.216;12.396;2023-03-21T09:13:22;14.50;58.30
70366;DHT22;57787;48.216;12.396;2023-03-21T09:15:53;14.60;58.50
70366;DHT22;57787;48.216;12.396;2023-03-21T09:18:20;14.80;59.80
70366;DHT22;57787;48.216;12.396;2023-03-21T09:20:48;14.80;58.60
70366;DHT22;57787;48.216;12.396;2023-03-21T09:23:17;14.90;58.00
70366;DHT22;57787;48.216;12.396;2023-03-21T09:25:44;14.90;57.90
70366;DHT22;57787;48.216;12.396;2023-03-21T09:28:11;14.80;57.20
70366;DHT22;57787;48.216;12.396;2023-03-21T09:30:39;14.80;57.20
70366;DHT22;57787;48.216;12.396;2023-03-21T09:33:06;14.60;56.00
70366;DHT22;57787;48.216;12.396;2023-03-21T09:35:34;14.60;56.10
70366;DHT22;57787;48.216;12.396;2023-03-21T09:38:01;14.40;57.30
70366;DHT22;57787;48.216;12.396;2023-03-21T09:43:30;14.40;59.20
70366;DHT22;57787;48.216;12.396;2023-03-21T09:46:12;14.60;59.50
70366;DHT22;57787;48.216;12.396;2023-03-21T09:48:49;14.90;60.20
70366;DHT22;57787;48.216;12.396;2023-03-21T09:51:28;15.30;60.80
70366;DHT22;57787;48.216;12.396;2023-03-21T09:53:56;15.50;55.80
70366;DHT22;57787;48.216;12.396;2023-03-21T09:56:26;15.60;54.30
70366;DHT22;57787;48.216;12.396;2023-03-21T09:58:55;15.80;55.70
70366;DHT22;57787;48.216;12.396;2023-03-21T10:01:28;15.90;56.00
70366;DHT22;57787;48.216;12.396;2023-03-21T10:04:04;15.90;55.40
70366;DHT22;57787;48.216;12.396;2023-03-21T10:06:35;15.90;53.70
70366;DHT22;57787;48.216;12.396;2023-03-21T10:09:07;16.10;55.40
70366;DHT22;57787;48.216;12.396;2023-03-21T10:11:42;16.20;56.30
70366;DHT22;57787;48.216;12.396;2023-03-21T10:14:15;16.40;54.90
70366;DHT22;57787;48.216;12.396;2023-03-21T10:16:44;16.60;50.70
70366;DHT22;57787;48.216;12.396;2023-03-21T10:19:13;16.80;52.00
70366;DHT22;57787;48.216;12.396;2023-03-21T10:21:40;17.00;54.00
70366;DHT22;57787;48.216;12.396;2023-03-21T10:24:26;17.10;53.50
70366;DHT22;57787;48.216;12.396;2023-03-21T10:26:54;17.10;53.00
70366;DHT22;57787;48.216;12.396;2023-03-21T10:29:22;17.00;52.70
70366;DHT22;57787;48.216;12.396;2023-03-21T10:31:51;17.10;53.00
70366;DHT22;57787;48.216;12.396;2023-03-21T10:34:39;17.20;51.40
70366;DHT22;57787;48.216;12.396;2023-03-21T10:37:07;17.10;49.10
70366;DHT22;57787;48.216;12.396;2023-03-21T10:39:35;17.20;50.90
70366;DHT22;57787;48.216;12.396;2023-03-21T10:42:03;17.40;51.60
70366;DHT22;57787;48.216;12.396;2023-03-21T10:44:31;17.50;50.50
70366;DHT22;57787;48.216;12.396;2023-03-21T10:47:02;17.60;48.60
70366;DHT22;57787;48.216;12.396;2023-03-21T10:49:30;17.70;50.90
70366;DHT22;57787;48.216;12.396;2023-03-21T10:52:07;17.90;51.60
70366;DHT22;57787;48.216;12.396;2023-03-21T10:54:34;17.90;49.70
70366;DHT22;57787;48.216;12.396;2023-03-21T10:57:05;18.00;50.30
70366;DHT22;57787;48.216;12.396;2023-03-21T10:59:43;18.00;47.40
70366;DHT22;57787;48.216;12.396;2023-03-21T11:04:53;18.00;49.00
70366;DHT22;57787;48.216;12.396;2023-03-21T11:07:21;18.00;48.60
70366;DHT22;57787;48.216;12.396;2023-03-21T11:09:56;17.90;46.10
70366;DHT22;57787;48.216;12.396;2023-03-21T11:14:56;17.70;46.30
70366;DHT22;57787;48.216;12.396;2023-03-21T11:17:26;17.80;48.60
70366;DHT22;57787;48.216;12.396;2023-03-21T11:22:21;17.70;47.90
70366;DHT22;57787;48.216;12.396;2023-03-21T11:24:52;17.80;48.50
70366;DHT22;57787;48.216;12.396;2023-03-21T11:27:19;17.70;47.50
70366;DHT22;57787;48.216;12.396;2023-03-21T11:29:50;17.60;47.90
70366;DHT22;57787;48.216;12.396;2023-03-21T11:32:21;17.70;48.00
70366;DHT22;57787;48.216;12.396;2023-03-21T11:34:51;17.60;47.80
70366;DHT22;57787;48.216;12.396;2023-03-21T11:37:41;17.80;48.90
70366;DHT22;57787;48.216;12.396;2023-03-21T11:40:26;17.80;47.00
70366;DHT22;57787;48.216;12.396;2023-03-21T11:42:54;17.90;48.80
70366;DHT22;57787;48.216;12.396;2023-03-21T11:47:49;17.90;47.20
70366;DHT22;57787;48.216;12.396;2023-03-21T11:50:19;18.10;47.10
70366;DHT22;57787;48.216;12.396;2023-03-21T11:58:16;18.40;46.80
70366;DHT22;57787;48.216;12.396;2023-03-21T12:00:48;18.50;46.60
70366;DHT22;57787;48.216;12.396;2023-03-21T12:06:01;18.80;45.50
70366;DHT22;57787;48.216;12.396;2023-03-21T12:08:39;19.00;46.50
70366;DHT22;57787;48.216;12.396;2023-03-21T12:11:14;19.20;45.70
70366;DHT22;57787;48.216;12.396;2023-03-21T12:13:47;19.30;44.90
70366;DHT22;57787;48.216;12.396;2023-03-21T12:19:09;19.30;44.00
70366;DHT22;57787;48.216;12.396;2023-03-21T12:24:22;19.30;44.00
70366;DHT22;57787;48.216;12.396;2023-03-21T12:27:03;19.30;43.80
70366;DHT22;57787;48.216;12.396;2023-03-21T12:29:44;19.10;41.50
70366;DHT22;57787;48.216;12.396;2023-03-21T12:37:29;19.10;42.50
70366;DHT22;57787;48.216;12.396;2023-03-21T12:42:49;19.00;42.50
70366;DHT22;57787;48.216;12.396;2023-03-21T12:45:22;19.00;43.20
70366;DHT22;57787;48.216;12.396;2023-03-21T12:47:54;19.00;44.50
70366;DHT22;57787;48.216;12.396;2023-03-21T12:50:24;19.10;42.70
70366;DHT22;57787;48.216;12.396;2023-03-21T12:52:57;19.30;43.90
70366;DHT22;57787;48.216;12.396;2023-03-21T12:55:32;19.40;41.40
70366;DHT22;57787;48.216;12.396;2023-03-21T12:58:01;19.60;43.90
70366;DHT22;57787;48.216;12.396;2023-03-21T13:00:40;19.70;43.50
70366;DHT22;57787;48.216;12.396;2023-03-21T13:06:05;19.30;43.20
70366;DHT22;57787;48.216;12.396;2023-03-21T13:08:55;19.30;45.00
70366;DHT22;57787;48.216;12.396;2023-03-21T13:11:21;19.30;43.60
70366;DHT22;57787;48.216;12.396;2023-03-21T13:14:32;19.20;44.50
70366;DHT22;57787;48.216;12.396;2023-03-21T13:16:52;19.10;44.00
70366;DHT22;57787;48.216;12.396;2023-03-21T13:19:30;19.00;45.00
70366;DHT22;57787;48.216;12.396;2023-03-21T13:22:16;19.20;44.30
70366;DHT22;57787;48.216;12.396;2023-03-21T13:24:47;19.30;46.10
70366;DHT22;57787;48.216;12.396;2023-03-21T13:29:46;19.20;44.40
70366;DHT22;57787;48.216;12.396;2023-03-21T13:32:17;19.20;46.00
70366;DHT22;57787;48.216;12.396;2023-03-21T13:34:55;19.20;45.00
70366;DHT22;57787;48.216;12.396;2023-03-21T13:37:22;19.10;44.10
70366;DHT22;57787;48.216;12.396;2023-03-21T13:39:50;19.10;44.00
70366;DHT22;57787;48.216;12.396;2023-03-21T13:42:20;19.00;44.10
70366;DHT22;57787;48.216;12.396;2023-03-21T13:44:51;19.00;43.40
70366;DHT22;57787;48.216;12.396;2023-03-21T13:50:10;18.80;45.00
70366;DHT22;57787;48.216;12.396;2023-03-21T13:52:34;18.80;45.90
70366;DHT22;57787;48.216;12.396;2023-03-21T13:55:02;18.80;43.50
70366;DHT22;57787;48.216;12.396;2023-03-21T14:05:21;18.60;44.20
70366;DHT22;57787;48.216;12.396;2023-03-21T14:07:49;18.50;44.30
70366;DHT22;57787;48.216;12.396;2023-03-21T14:12:46;18.30;46.10
70366;DHT22;57787;48.216;12.396;2023-03-21T14:15:19;18.20;45.90
70366;DHT22;57787;48.216;12.396;2023-03-21T14:17:52;18.20;46.30
70366;DHT22;57787;48.216;12.396;2023-03-21T14:20:21;18.30;46.10
70366;DHT22;57787;48.216;12.396;2023-03-21T14:22:48;18.20;44.70
70366;DHT22;57787;48.216;12.396;2023-03-21T14:25:16;18.20;44.30
70366;DHT22;57787;48.216;12.396;2023-03-21T14:27:44;18.20;45.10
70366;DHT22;57787;48.216;12.396;2023-03-21T14:30:49;18.20;44.50
70366;DHT22;57787;48.216;12.396;2023-03-21T14:33:07;18.10;45.50
70366;DHT22;57787;48.216;12.396;2023-03-21T14:35:36;18.10;47.10
70366;DHT22;57787;48.216;12.396;2023-03-21T14:38:07;18.00;46.50
70366;DHT22;57787;48.216;12.396;2023-03-21T14:40:34;18.10;45.80
70366;DHT22;57787;48.216;12.396;2023-03-21T14:43:03;18.00;46.30
70366;DHT22;57787;48.216;12.396;2023-03-21T14:45:30;18.00;46.70
70366;DHT22;57787;48.216;12.396;2023-03-21T14:50:48;18.10;45.70
70366;DHT22;57787;48.216;12.396;2023-03-21T14:56:01;18.10;46.70
70366;DHT22;57787;48.216;12.396;2023-03-21T14:58:29;18.00;46.20
70366;DHT22;57787;48.216;12.396;2023-03-21T15:00:57;17.90;46.20
70366;DHT22;57787;48.216;12.396;2023-03-21T15:03:27;17.90;46.30
70366;DHT22;57787;48.216;12.396;2023-03-21T15:05:54;17.90;47.30
70366;DHT22;57787;48.216;12.396;2023-03-21T15:08:25;17.90;46.60
70366;DHT22;57787;48.216;12.396;2023-03-21T15:11:02;17.90;46.00
70366;DHT22;57787;48.216;12.396;2023-03-21T15:13:38;17.80;46.50
70366;DHT22;57787;48.216;12.396;2023-03-21T15:16:06;17.70;47.20
70366;DHT22;57787;48.216;12.396;2023-03-21T15:21:22;17.70;46.60
70366;DHT22;57787;48.216;12.396;2023-03-21T15:23:53;17.50;46.50
70366;DHT22;57787;48.216;12.396;2023-03-21T15:26:22;17.40;46.30
70366;DHT22;57787;48.216;12.396;2023-03-21T15:28:54;17.40;49.00
70366;DHT22;57787;48.216;12.396;2023-03-21T15:31:22;17.40;47.50
70366;DHT22;57787;48.216;12.396;2023-03-21T15:33:52;17.40;47.80
70366;DHT22;57787;48.216;12.396;2023-03-21T15:36:20;17.40;47.90
70366;DHT22;57787;48.216;12.396;2023-03-21T15:38:47;17.30;46.70
70366;DHT22;57787;48.216;12.396;2023-03-21T15:43:53;17.10;48.30
70366;DHT22;57787;48.216;12.396;2023-03-21T15:46:38;17.00;47.70
70366;DHT22;57787;48.216;12.396;2023-03-21T15:49:08;17.00;47.90
70366;DHT22;57787;48.216;12.396;2023-03-21T15:51:35;16.90;48.70
70366;DHT22;57787;48.216;12.396;2023-03-21T15:54:02;16.80;48.60
70366;DHT22;57787;48.216;12.396;2023-03-21T15:56:31;16.70;49.20
70366;DHT22;57787;48.216;12.396;2023-03-21T15:59:00;16.70;50.10
70366;DHT22;57787;48.216;12.396;2023-03-21T16:01:29;16.70;49.80
70366;DHT22;57787;48.216;12.396;2023-03-21T16:03:57;16.70;48.80
70366;DHT22;57787;48.216;12.396;2023-03-21T16:06:31;16.60;49.40
70366;DHT22;57787;48.216;12.396;2023-03-21T16:09:12;16.60;49.30
70366;DHT22;57787;48.216;12.396;2023-03-21T16:11:41;16.50;49.60
70366;DHT22;57787;48.216;12.396;2023-03-21T16:14:08;16.40;50.10
70366;DHT22;57787;48.216;12.396;2023-03-21T16:16:34;16.30;50.90
70366;DHT22;57787;48.216;12.396;2023-03-21T16:19:01;16.30;49.40
70366;DHT22;57787;48.216;12.396;2023-03-21T16:21:29;16.30;49.70
70366;DHT22;57787;48.216;12.396;2023-03-21T16:23:56;16.20;50.00
70366;DHT22;57787;48.216;12.396;2023-03-21T16:26:24;16.20;49.80
70366;DHT22;57787;48.216;12.396;2023-03-21T16:28:53;16.10;50.40
70366;DHT22;57787;48.216;12.396;2023-03-21T16:31:20;16.00;49.90
70366;DHT22;57787;48.216;12.396;2023-03-21T16:33:48;16.00;50.80
70366;DHT22;57787;48.216;12.396;2023-03-21T16:36:20;15.90;50.60
70366;DHT22;57787;48.216;12.396;2023-03-21T16:38:47;15.90;50.60
70366;DHT22;57787;48.216;12.396;2023-03-21T16:41:21;15.80;52.90
70366;DHT22;57787;48.216;12.396;2023-03-21T16:43:48;15.70;51.80
70366;DHT22;57787;48.216;12.396;2023-03-21T16:46:16;15.70;51.50
70366;DHT22;57787;48.216;12.396;2023-03-21T16:48:44;15.60;52.20
70366;DHT22;57787;48.216;12.396;2023-03-21T16:51:16;15.50;53.90
70366;DHT22;57787;48.216;12.396;2023-03-21T16:53:43;15.40;53.20
70366;DHT22;57787;48.216;12.396;2023-03-21T16:56:35;15.30;52.60
70366;DHT22;57787;48.216;12.396;2023-03-21T16:58:58;15.30;52.80
70366;DHT22;57787;48.216;12.396;2023-03-21T17:01:24;15.20;54.30
70366;DHT22;57787;48.216;12.396;2023-03-21T17:03:52;15.00;53.40
70366;DHT22;57787;48.216;12.396;2023-03-21T17:06:20;15.00;53.60
70366;DHT22;57787;48.216;12.396;2023-03-21T17:08:48;14.90;54.70